Wanderoos, Wisconsin
Current Conditions -  °F | °C
As of 3:35 PM on Wednesday 26 Nov 2014 (Local Time) from KOEO Reporting Station
Overcast Overcast  
Wind Chill: 18°   Ceiling: 2500
Heat Index: 26°   Visibility: 10mi
Dew Point: 18°   Wind: 7mph
Humidity: 71%   Direction: 350°N
Pressure: 30.26"   Gusts: NA
Location:  45.3559°N, 92.3527°W
Report Text: KOEO 262135Z AUTO 35006KT 10SM OVC025 M03/M08 A3026 RMK AO2 T10351080
Loading
Personal Weather Stations






























Interactive Weather Map New forecast layout! Learn more

10-Day Weather Forecast

Advertisements
Track Severe Weather on mobile